Time;durP1;ratioP1;P1;durP2;ratioP2;P2;SDS_P1;SDS_P2;PMS_P1;PMS_P2;Temp;Humidity;BMP_temperature;BMP_pressure;BME280_temperature;BME280_humidity;BME280_pressure;Samples;Min_cycle;Max_cycle;Signal;HPM_P1;HPM_P2
2024/04/11 00:01:18;;;;;;;7.50;1.70;;;;;;;10.23;100.00;69536.31;5556232;25;19996;-49
2024/04/11 00:03:49;;;;;;;5.97;1.52;;;;;;;10.26;100.00;69537.22;5559236;25;20000;-48
2024/04/11 00:06:18;;;;;;;7.25;1.83;;;;;;;10.30;100.00;69545.06;5554179;25;20067;-48
2024/04/11 00:08:51;;;;;;;6.32;1.65;;;;;;;10.34;100.00;69545.97;5554975;25;19997;-48
2024/04/11 00:11:20;;;;;;;6.57;1.73;;;;;;;10.35;100.00;69549.75;5556608;25;20325;-48
2024/04/11 00:13:51;;;;;;;9.85;2.15;;;;;;;10.34;100.00;69548.56;5559657;25;20021;-48
2024/04/11 00:16:19;;;;;;;7.93;1.55;;;;;;;10.35;100.00;69547.75;5559748;25;19997;-54
2024/04/11 00:18:50;;;;;;;7.30;1.85;;;;;;;10.38;100.00;69553.28;5555600;25;19993;-52
2024/04/11 00:21:18;;;;;;;6.30;1.30;;;;;;;10.38;100.00;69553.28;5552712;25;20065;-49
2024/04/11 00:23:53;;;;;;;8.10;1.45;;;;;;;10.40;100.00;69552.97;5558563;25;20007;-46
2024/04/11 00:26:22;;;;;;;12.18;1.70;;;;;;;10.43;100.00;69559.09;5559393;25;20063;-47
2024/04/11 00:28:53;;;;;;;6.93;1.50;;;;;;;10.44;100.00;69560.25;5559237;25;20000;-47
2024/04/11 00:31:21;;;;;;;8.15;1.70;;;;;;;10.47;100.00;69563.75;5559109;25;19993;-48
2024/04/11 00:34:12;;;;;;;7.32;1.65;;;;;;;10.49;100.00;69564.06;5559292;25;20004;-48
2024/04/11 00:36:44;;;;;;;5.22;1.25;;;;;;;10.54;100.00;69571.94;5559296;25;20053;-49
2024/04/11 00:39:18;;;;;;;8.75;1.65;;;;;;;10.55;100.00;69573.13;5559237;25;20009;-47
2024/04/11 00:41:47;;;;;;;7.35;1.55;;;;;;;10.57;100.00;69577.47;5558871;25;20068;-49
2024/04/11 00:44:19;;;;;;;7.70;1.40;;;;;;;10.58;100.00;69574.00;5558621;25;19997;-46
2024/04/11 00:46:51;;;;;;;6.53;1.50;;;;;;;10.61;100.00;69580.09;5553894;25;20007;-46
2024/04/11 00:49:23;;;;;;;8.68;1.80;;;;;;;10.66;100.00;69577.50;5556519;25;20005;-47
2024/04/11 00:51:52;;;;;;;4.80;1.20;;;;;;;10.64;100.00;69583.59;5558999;25;20459;-48
2024/04/11 00:54:25;;;;;;;6.35;1.55;;;;;;;10.65;100.00;69579.56;5558477;25;20008;-49
2024/04/11 00:56:57;;;;;;;5.45;1.80;;;;;;;10.69;100.00;69590.88;5558783;25;20029;-48
2024/04/11 00:59:30;;;;;;;9.18;1.70;;;;;;;10.74;100.00;69594.09;5558602;25;20001;-48
2024/04/11 01:01:58;;;;;;;7.82;1.90;;;;;;;10.74;100.00;69588.88;5558484;25;19996;-47
2024/04/11 01:04:30;;;;;;;6.05;1.45;;;;;;;10.81;100.00;69602.28;5557419;25;20068;-52
2024/04/11 01:07:08;;;;;;;8.63;2.07;;;;;;;10.76;100.00;69599.63;5525801;25;20001;-47
2024/04/11 01:09:43;;;;;;;8.43;1.75;;;;;;;10.80;100.00;69601.13;5557932;25;19999;-48
2024/04/11 01:12:16;;;;;;;8.05;1.65;;;;;;;10.80;100.00;69601.13;5554854;25;20000;-54
2024/04/11 01:14:50;;;;;;;7.25;1.63;;;;;;;10.82;100.00;69603.44;5527785;25;20012;-53
2024/04/11 01:17:20;;;;;;;5.45;1.35;;;;;;;10.79;100.00;69602.56;5558867;25;20008;-54
2024/04/11 01:19:51;;;;;;;4.68;1.60;;;;;;;10.81;100.00;69604.88;5556964;25;19997;-54
2024/04/11 01:22:19;;;;;;;7.57;1.67;;;;;;;10.78;100.00;69599.38;5562325;25;20368;-52
2024/04/11 01:24:54;;;;;;;7.95;1.63;;;;;;;10.80;100.00;69604.31;5562052;25;19993;-54
2024/04/11 01:27:23;;;;;;;7.45;1.30;;;;;;;10.80;100.00;69598.50;5529781;25;20025;-54
2024/04/11 01:29:54;;;;;;;6.90;1.55;;;;;;;10.81;100.00;69600.25;5562268;25;19997;-55
2024/04/11 01:32:22;;;;;;;7.90;1.77;;;;;;;10.81;100.00;69602.28;5562143;25;20122;-54
2024/04/11 01:34:56;;;;;;;6.65;1.67;;;;;;;10.85;100.00;69606.38;5561852;25;20017;-53
2024/04/11 01:37:25;;;;;;;8.57;1.42;;;;;;;10.83;100.00;69604.63;5561954;25;20001;-56
2024/04/11 01:39:58;;;;;;;10.27;1.88;;;;;;;10.82;100.00;69603.44;5558851;25;20120;-53
2024/04/11 01:42:26;;;;;;;8.88;1.58;;;;;;;10.83;100.00;69607.22;5557416;25;20008;-54
2024/04/11 01:44:58;;;;;;;5.78;1.83;;;;;;;10.82;100.00;69606.06;5560740;25;20004;-53
2024/04/11 01:47:26;;;;;;;4.47;1.40;;;;;;;10.83;100.00;69607.22;5561827;25;20009;-54
2024/04/11 01:49:57;;;;;;;7.63;1.77;;;;;;;10.83;100.00;69607.22;5561587;25;19993;-52
2024/04/11 01:52:25;;;;;;;6.38;1.52;;;;;;;10.83;100.00;69607.81;5559097;25;20416;-54
2024/04/11 01:55:00;;;;;;;9.18;1.70;;;;;;;10.83;100.00;69604.63;5556453;25;20646;-55
2024/04/11 01:57:28;;;;;;;7.80;1.63;;;;;;;10.87;100.00;69606.09;5561903;25;20320;-53
2024/04/11 01:59:59;;;;;;;6.88;1.50;;;;;;;10.89;100.00;69611.63;5561544;25;20018;-47
2024/04/11 02:02:29;;;;;;;9.55;1.80;;;;;;;10.90;100.00;69615.41;5561480;25;20456;-53
2024/04/11 02:05:00;;;;;;;5.38;1.45;;;;;;;10.90;100.00;69612.78;5561347;25;20004;-53
2024/04/11 02:07:28;;;;;;;8.35;1.77;;;;;;;10.87;100.00;69609.28;5528277;25;19996;-47
2024/04/11 02:10:02;;;;;;;8.02;1.85;;;;;;;10.92;100.00;69615.13;5560987;25;20060;-47
2024/04/11 02:12:30;;;;;;;5.10;1.40;;;;;;;10.91;100.00;69611.34;5561232;25;20354;-55
2024/04/11 02:15:01;;;;;;;6.43;1.33;;;;;;;10.91;100.00;69613.97;5561234;25;19996;-54
2024/04/11 02:17:30;;;;;;;7.35;1.77;;;;;;;10.91;100.00;69610.78;5561341;25;19993;-50
2024/04/11 02:20:02;;;;;;;6.18;1.58;;;;;;;10.92;100.00;69611.91;5555187;25;20030;-52
2024/04/11 02:22:30;;;;;;;10.82;1.75;;;;;;;10.90;100.00;69614.81;5557601;25;19997;-53
2024/04/11 02:25:04;;;;;;;9.63;1.67;;;;;;;10.91;100.00;69613.38;5560470;25;19993;-50
2024/04/11 02:27:31;;;;;;;9.18;1.83;;;;;;;10.91;100.00;69613.38;5559363;25;20072;-53
2024/04/11 02:30:02;;;;;;;7.28;1.58;;;;;;;10.89;100.00;69616.84;5556708;25;19996;-53
2024/04/11 02:32:31;;;;;;;9.68;2.15;;;;;;;10.89;100.00;69611.63;5560702;25;20033;-54
2024/04/11 02:35:05;;;;;;;6.20;1.50;;;;;;;10.92;100.00;69615.13;5554417;25;20001;-53
2024/04/11 02:37:34;;;;;;;8.48;1.45;;;;;;;10.91;100.00;69611.34;5558384;25;20433;-53
2024/04/11 02:40:09;;;;;;;6.30;1.95;;;;;;;10.91;100.00;69613.97;5558551;25;19996;-53
2024/04/11 02:42:38;;;;;;;6.97;1.63;;;;;;;10.89;100.00;69606.38;5556600;25;20028;-53
2024/04/11 02:45:14;;;;;;;8.68;1.58;;;;;;;10.91;100.00;69610.78;5560524;25;19997;-52
2024/04/11 02:47:42;;;;;;;9.23;1.50;;;;;;;10.94;100.00;69620.06;5556568;25;20004;-52
2024/04/11 02:50:15;;;;;;;7.28;1.50;;;;;;;10.95;100.00;69618.06;5554049;25;20008;-52
2024/04/11 02:52:43;;;;;;;8.32;1.92;;;;;;;10.93;100.00;69615.72;5559465;25;20324;-53
2024/04/11 02:55:17;;;;;;;9.88;1.73;;;;;;;10.93;100.00;69615.72;5560834;25;20317;-52
2024/04/11 02:57:46;;;;;;;7.95;1.75;;;;;;;10.91;100.00;69613.97;5560906;25;20012;-54
2024/04/11 03:00:17;;;;;;;8.60;1.60;;;;;;;10.94;100.00;69617.44;5561091;25;20009;-53
2024/04/11 03:02:45;;;;;;;8.88;1.80;;;;;;;10.93;100.00;69615.72;5558900;25;20328;-54
2024/04/11 03:05:16;;;;;;;8.18;1.85;;;;;;;10.96;100.00;69619.19;5553229;25;20317;-51
2024/04/11 03:07:44;;;;;;;7.63;1.50;;;;;;;10.96;100.00;69619.81;5556468;25;19997;-54
2024/04/11 03:10:18;;;;;;;9.52;1.63;;;;;;;10.95;100.00;69618.06;5555674;25;19992;-51
2024/04/11 03:12:46;;;;;;;8.25;1.45;;;;;;;10.96;100.00;69625.03;5556088;25;20007;-53
2024/04/11 03:15:18;;;;;;;5.28;1.58;;;;;;;10.97;100.00;69620.94;5522103;25;19996;-52
2024/04/11 03:17:48;;;;;;;7.15;1.60;;;;;;;10.97;100.00;69620.38;5559001;25;20593;-54
2024/04/11 03:20:19;;;;;;;8.68;1.60;;;;;;;10.98;100.00;69622.13;5560875;25;20012;-54
2024/04/11 03:22:47;;;;;;;5.68;1.42;;;;;;;10.99;100.00;69625.34;5560511;25;20316;-55
2024/04/11 03:25:20;;;;;;;9.30;1.85;;;;;;;10.98;100.00;69622.13;5560856;25;19993;-52
2024/04/11 03:27:48;;;;;;;7.88;1.70;;;;;;;11.02;100.00;69625.66;5558228;25;20001;-53
2024/04/11 03:30:19;;;;;;;6.38;1.63;;;;;;;10.99;100.00;69623.28;5555161;25;20049;-53
2024/04/11 03:32:50;;;;;;;12.35;1.92;;;;;;;10.99;100.00;69625.91;5559523;25;20008;-53
2024/04/11 03:35:21;;;;;;;9.02;1.73;;;;;;;11.03;100.00;69627.38;5558694;25;20012;-53
2024/04/11 03:37:51;;;;;;;10.70;1.67;;;;;;;11.05;100.00;69629.13;5555816;25;20805;-50
2024/04/11 03:40:25;;;;;;;7.10;1.67;;;;;;;11.07;100.00;69631.47;5557821;25;20012;-54
2024/04/11 03:42:56;;;;;;;7.78;1.95;;;;;;;11.09;100.00;69631.78;5560533;25;20468;-54
2024/04/11 03:45:27;;;;;;;6.28;1.45;;;;;;;11.05;100.00;69634.38;5560483;25;20003;-52
2024/04/11 03:47:57;;;;;;;8.25;1.83;;;;;;;11.11;100.00;69638.75;5560161;25;20446;-53
2024/04/11 03:50:29;;;;;;;8.15;2.00;;;;;;;11.09;100.00;69639.03;5560415;25;20001;-53
2024/04/11 03:53:00;;;;;;;8.30;1.90;;;;;;;11.07;100.00;69629.44;5559866;25;20008;-54
2024/04/11 03:55:31;;;;;;;6.50;1.90;;;;;;;11.10;100.00;69627.16;5556735;25;20005;-54
2024/04/11 03:58:02;;;;;;;9.88;2.00;;;;;;;11.08;100.00;69635.25;5556032;25;20381;-54
2024/04/11 04:00:30;;;;;;;9.65;1.88;;;;;;;11.07;100.00;69628.84;5560041;25;20352;-51
2024/04/11 04:03:01;;;;;;;9.90;2.15;;;;;;;11.07;100.00;69636.69;5560111;25;20009;-55
2024/04/11 04:05:31;;;;;;;11.77;2.40;;;;;;;11.06;100.00;69630.88;5555080;25;20445;-48
2024/04/11 04:08:02;;;;;;;8.85;1.83;;;;;;;11.07;100.00;69631.47;5555030;25;20097;-54
2024/04/11 04:10:32;;;;;;;9.90;2.00;;;;;;;11.07;100.00;69634.06;5559845;25;20008;-54
2024/04/11 04:13:09;;;;;;;9.43;1.95;;;;;;;11.04;100.00;69627.97;5559407;25;20436;-53
2024/04/11 04:15:37;;;;;;;9.60;2.05;;;;;;;11.05;100.00;69632.31;5556547;25;20594;-53
2024/04/11 04:18:11;;;;;;;10.15;2.10;;;;;;;11.04;100.00;69628.53;5555388;25;20011;-54
2024/04/11 04:20:42;;;;;;;8.98;2.10;;;;;;;11.05;100.00;69631.75;5553156;25;20003;-52
2024/04/11 04:23:13;;;;;;;10.85;2.05;;;;;;;11.01;100.00;69625.03;5555076;25;20015;-53
2024/04/11 04:25:43;;;;;;;8.45;2.03;;;;;;;11.03;100.00;69626.78;5559657;25;20532;-54
2024/04/11 04:28:18;;;;;;;7.57;2.17;;;;;;;11.04;100.00;69630.56;5559543;25;20238;-53
2024/04/11 04:30:47;;;;;;;9.40;2.13;;;;;;;11.02;100.00;69626.22;5556433;25;19997;-53
2024/04/11 04:33:18;;;;;;;12.13;2.30;;;;;;;11.02;100.00;69625.66;5554920;25;20011;-54
2024/04/11 04:35:47;;;;;;;7.70;1.77;;;;;;;11.01;100.00;69624.47;5558170;25;20000;-53
2024/04/11 04:38:17;;;;;;;10.75;1.90;;;;;;;10.99;100.00;69622.72;5554667;25;20005;-53
2024/04/11 04:40:48;;;;;;;12.68;2.22;;;;;;;10.95;100.00;69618.63;5554469;25;19993;-53
2024/04/11 04:43:19;;;;;;;8.10;1.75;;;;;;;10.95;100.00;69616.00;5554660;25;20727;-54
2024/04/11 04:45:49;;;;;;;7.60;2.60;;;;;;;10.96;100.00;69619.19;5554545;25;20480;-52
2024/04/11 04:48:20;;;;;;;7.97;2.00;;;;;;;10.95;100.00;69618.63;5558850;25;20005;-54
2024/04/11 04:50:48;;;;;;;10.30;1.48;;;;;;;10.96;100.00;69619.19;5563657;25;20024;-54
2024/04/11 04:53:19;;;;;;;9.60;1.90;;;;;;;10.94;100.00;69614.28;5562751;25;20196;-55
2024/04/11 04:55:50;;;;;;;9.35;2.15;;;;;;;10.91;100.00;69613.97;5562779;25;20451;-54
2024/04/11 04:58:22;;;;;;;6.40;1.60;;;;;;;10.91;100.00;69610.78;5562656;25;20151;-53
2024/04/11 05:00:51;;;;;;;6.75;1.85;;;;;;;10.94;100.00;69616.88;5562724;25;20328;-54
2024/04/11 05:03:24;;;;;;;9.45;1.75;;;;;;;10.92;100.00;69617.75;5563091;25;20720;-54
2024/04/11 05:05:52;;;;;;;;;;;;;;;10.92;100.00;69617.75;5563194;25;20432;-53
2024/04/11 05:08:23;;;;;;;6.78;1.52;;;;;;;10.93;100.00;69616.28;5559239;25;20258;-52
2024/04/11 05:10:57;;;;;;;8.98;2.00;;;;;;;10.97;100.00;69620.38;5557611;25;19995;-54
2024/04/11 05:13:31;;;;;;;9.40;1.50;;;;;;;10.95;100.00;69612.84;5529664;25;20397;-53
2024/04/11 05:16:06;;;;;;;9.50;1.40;;;;;;;10.91;100.00;69618.59;5562103;25;19992;-54
2024/04/11 05:18:38;;;;;;;8.32;1.63;;;;;;;10.91;100.00;69613.38;5562373;25;20440;-52
2024/04/11 05:21:07;;;;;;;8.60;1.83;;;;;;;10.92;100.00;69617.75;5562290;25;20004;-56
2024/04/11 05:23:38;;;;;;;10.60;1.60;;;;;;;10.91;100.00;69613.97;5561888;25;19993;-53
2024/04/11 05:26:14;;;;;;;8.07;1.90;;;;;;;10.91;100.00;69613.38;5562390;25;19997;-53
2024/04/11 05:28:47;;;;;;;8.02;1.88;;;;;;;10.94;100.00;69619.50;5562422;25;20491;-54
2024/04/11 05:31:16;;;;;;;8.98;1.80;;;;;;;10.92;100.00;69615.13;5562240;25;19997;-55
2024/04/11 05:33:51;;;;;;;9.82;2.38;;;;;;;10.95;100.00;69612.84;5562016;25;19993;-54
2024/04/11 05:36:24;;;;;;;5.72;1.25;;;;;;;10.93;100.00;69618.31;5562535;25;20531;-53
2024/04/11 05:38:56;;;;;;;8.32;1.67;;;;;;;10.92;100.00;69617.75;5560781;25;20004;-54
2024/04/11 05:41:27;;;;;;;7.23;1.70;;;;;;;10.96;100.00;69621.81;5557322;25;20380;-54
2024/04/11 05:43:59;;;;;;;6.50;1.65;;;;;;;10.97;100.00;69620.94;5527409;25;20448;-53
2024/04/11 05:46:28;;;;;;;6.85;1.60;;;;;;;11.02;100.00;69625.66;5557922;25;20007;-54
2024/04/11 05:48:58;;;;;;;7.43;1.85;;;;;;;11.06;100.00;69630.31;5558098;25;20327;-54
2024/04/11 05:51:27;;;;;;;8.18;1.90;;;;;;;11.10;100.00;69640.22;5562334;25;20004;-54
2024/04/11 05:53:58;;;;;;;7.93;1.55;;;;;;;11.07;100.00;69631.47;5561504;25;20008;-54
2024/04/11 05:56:29;;;;;;;8.00;1.95;;;;;;;11.05;100.00;69629.13;5561675;25;20021;-52
2024/04/11 05:59:00;;;;;;;9.20;1.90;;;;;;;11.05;100.00;69632.31;5556804;25;20180;-51
2024/04/11 06:01:33;;;;;;;10.02;1.98;;;;;;;11.10;100.00;69634.97;5525404;25;20005;-54
2024/04/11 06:04:06;;;;;;;8.93;2.05;;;;;;;11.13;100.00;69638.47;5561768;25;19997;-53
2024/04/11 06:06:35;;;;;;;9.23;1.80;;;;;;;11.14;100.00;69639.66;5561666;25;20003;-55
2024/04/11 06:09:08;;;;;;;10.55;1.70;;;;;;;11.12;100.00;69637.88;5561307;25;20352;-53
2024/04/11 06:11:40;;;;;;;7.25;1.63;;;;;;;11.13;100.00;69641.66;5561777;25;20384;-46
2024/04/11 06:14:11;;;;;;;7.78;1.80;;;;;;;11.15;100.00;69640.81;5561547;25;20035;-50
2024/04/11 06:16:39;;;;;;;6.53;1.88;;;;;;;11.17;100.00;69643.16;5561528;25;20011;-50
2024/04/11 06:19:10;;;;;;;9.90;1.80;;;;;;;11.16;100.00;69645.16;5561387;25;20336;-50
2024/04/11 06:21:45;;;;;;;9.15;1.90;;;;;;;11.17;100.00;69637.94;5561208;25;20476;-50
2024/04/11 06:24:18;;;;;;;7.78;1.92;;;;;;;11.18;100.00;69649.56;5559776;25;20025;-50
2024/04/11 06:26:50;;;;;;;11.68;2.10;;;;;;;11.19;100.00;69645.47;5556664;25;20448;-47
2024/04/11 06:29:24;;;;;;;8.45;1.63;;;;;;;11.17;100.00;69643.16;5558913;25;20016;-48
2024/04/11 06:31:53;;;;;;;12.95;2.03;;;;;;;11.19;100.00;69642.88;5561482;25;19997;-48
2024/04/11 06:34:24;;;;;;;9.05;1.67;;;;;;;11.20;100.00;69646.06;5561563;25;20332;-48
2024/04/11 06:36:54;;;;;;;8.75;1.90;;;;;;;11.20;100.00;69638.25;5561752;25;20008;-47
2024/04/11 06:39:25;;;;;;;8.20;1.90;;;;;;;11.18;100.00;69646.94;5561709;25;20014;-48
2024/04/11 06:41:58;;;;;;;9.48;2.13;;;;;;;11.15;100.00;69640.81;5561797;25;20410;-47
2024/04/11 06:44:29;;;;;;;12.18;2.08;;;;;;;11.14;100.00;69637.03;5561582;25;20430;-48
2024/04/11 06:46:57;;;;;;;6.85;2.20;;;;;;;11.10;100.00;69637.59;5561157;25;19996;-46
2024/04/11 06:49:28;;;;;;;8.43;2.22;;;;;;;11.08;100.00;69632.63;5560636;25;20016;-48
2024/04/11 06:51:56;;;;;;;6.47;1.92;;;;;;;11.05;100.00;69631.75;5559175;25;20001;-48
2024/04/11 06:54:29;;;;;;;11.20;2.05;;;;;;;11.04;100.00;69625.94;5556237;25;20125;-48
2024/04/11 06:57:03;;;;;;;6.82;1.98;;;;;;;11.02;100.00;69625.66;5559560;25;20011;-47
2024/04/11 06:59:34;;;;;;;9.00;1.70;;;;;;;11.01;100.00;69619.25;5560926;25;20017;-49
2024/04/11 07:02:07;;;;;;;7.68;1.73;;;;;;;10.98;100.00;69618.94;5561048;25;20025;-46
2024/04/11 07:04:37;;;;;;;6.65;1.92;;;;;;;10.97;100.00;69617.75;5560672;25;20324;-48
2024/04/11 07:07:08;;;;;;;7.60;1.88;;;;;;;10.93;100.00;69613.66;5560964;25;19997;-48
2024/04/11 07:09:40;;;;;;;6.50;1.88;;;;;;;10.95;100.00;69612.84;5559691;25;20020;-49
2024/04/11 07:12:28;;;;;;;9.90;2.25;;;;;;;10.94;100.00;69620.06;5560764;25;19997;-46
2024/04/11 07:14:57;;;;;;;10.93;2.40;;;;;;;10.93;100.00;69610.47;5561159;25;20432;-46
2024/04/11 07:17:29;;;;;;;6.70;2.08;;;;;;;10.94;100.00;69616.88;5561064;25;20072;-48
2024/04/11 07:19:58;;;;;;;8.65;2.35;;;;;;;10.95;100.00;69616.00;5555575;25;20005;-49
2024/04/11 07:22:33;;;;;;;9.75;2.17;;;;;;;10.96;100.00;69616.59;5556544;25;19997;-49
2024/04/11 07:25:07;;;;;;;9.50;2.00;;;;;;;10.99;100.00;69622.72;5560726;25;20736;-50
2024/04/11 07:27:40;;;;;;;8.70;2.03;;;;;;;11.01;100.00;69621.84;5527795;25;20012;-50
2024/04/11 07:30:11;;;;;;;8.68;2.08;;;;;;;11.00;100.00;69623.88;5560670;25;20073;-48
2024/04/11 07:32:42;;;;;;;11.18;2.15;;;;;;;11.02;100.00;69626.22;5560420;25;20464;-49
2024/04/11 07:35:15;;;;;;;9.00;2.30;;;;;;;10.97;100.00;69618.34;5560432;25;20068;-48
2024/04/11 07:37:47;;;;;;;9.73;2.15;;;;;;;10.90;100.00;69610.19;5560447;25;20472;-47
2024/04/11 07:40:27;;;;;;;14.17;2.37;;;;;;;10.94;100.00;69614.28;5557511;25;20011;-49
2024/04/11 07:43:09;;;;;;;7.15;2.30;;;;;;;10.92;100.00;69614.53;5522980;25;20439;-48
2024/04/11 07:45:37;;;;;;;9.32;2.40;;;;;;;10.91;100.00;69610.78;5560314;25;20001;-48
2024/04/11 07:48:08;;;;;;;9.50;2.45;;;;;;;10.91;100.00;69613.38;5559861;25;20455;-49
2024/04/11 07:50:44;;;;;;;9.68;2.15;;;;;;;10.90;100.00;69612.78;5560199;25;20035;-48
2024/04/11 07:53:18;;;;;;;8.65;2.42;;;;;;;10.90;100.00;69610.19;5560240;25;20455;-48
2024/04/11 07:55:49;;;;;;;8.30;2.38;;;;;;;10.87;100.00;69608.72;5560205;25;19992;-53
2024/04/11 07:58:23;;;;;;;10.30;2.70;;;;;;;10.82;100.00;69604.03;5560250;25;20352;-50
2024/04/11 08:00:54;;;;;;;8.82;2.50;;;;;;;10.83;100.00;69604.63;5560029;25;19993;-49
2024/04/11 08:03:25;;;;;;;11.05;2.80;;;;;;;10.87;100.00;69606.69;5560436;25;20432;-48
2024/04/11 08:05:54;;;;;;;10.38;2.72;;;;;;;10.87;100.00;69609.28;5559719;25;20000;-52
2024/04/11 08:08:25;;;;;;;14.38;2.97;;;;;;;10.89;100.00;69606.38;5559802;25;20088;-49
2024/04/11 08:11:02;;;;;;;8.40;2.83;;;;;;;10.92;100.00;69614.53;5560082;25;20001;-48
2024/04/11 08:13:36;;;;;;;11.48;2.58;;;;;;;10.98;100.00;69619.50;5527254;25;19997;-48
2024/04/11 08:16:10;;;;;;;10.98;2.80;;;;;;;10.97;100.00;69620.94;5559680;25;20020;-47
2024/04/11 08:18:40;;;;;;;12.02;2.85;;;;;;;11.05;100.00;69631.75;5559089;25;20029;-52
2024/04/11 08:21:09;;;;;;;9.05;2.15;;;;;;;11.02;100.00;69625.66;5553404;25;20001;-48
2024/04/11 08:23:39;;;;;;;8.35;2.33;;;;;;;11.02;100.00;69628.25;5560743;25;20028;-47
2024/04/11 08:26:12;;;;;;;8.43;2.42;;;;;;;11.03;100.00;69626.78;5563084;25;20008;-46
2024/04/11 08:28:46;;;;;;;;;;;;;;;11.03;100.00;69627.38;5563917;25;20510;-46
2024/04/11 08:31:15;;;;;;;8.13;2.47;;;;;;;11.09;100.00;69633.81;5544587;25;20361;-51
2024/04/11 08:33:46;;;;;;;9.52;3.45;;;;;;;11.13;100.00;69633.84;5524861;26;20077;-48
2024/04/11 08:36:18;;;;;;;10.15;2.42;;;;;;;11.20;100.00;69644.03;5523947;25;20012;-51
2024/04/11 08:38:48;;;;;;;10.68;2.40;;;;;;;11.25;100.00;69652.50;5520723;26;20378;-48
2024/04/11 08:41:17;;;;;;;9.93;2.47;;;;;;;11.28;100.00;69656.00;5525197;25;20001;-49
2024/04/11 08:43:51;;;;;;;9.40;2.47;;;;;;;11.27;100.00;69649.00;5491513;26;20033;-48
2024/04/11 08:46:19;;;;;;;11.68;2.90;;;;;;;11.28;100.00;69658.59;5525611;26;20570;-49
2024/04/11 08:48:50;;;;;;;11.45;2.63;;;;;;;11.30;100.00;69655.72;5521466;26;20013;-49
2024/04/11 08:51:19;;;;;;;8.80;2.65;;;;;;;11.33;100.00;69664.44;5517687;26;19998;-49
2024/04/11 08:53:51;;;;;;;10.32;2.45;;;;;;;11.41;100.00;69673.22;5511156;26;20001;-46
2024/04/11 08:56:31;;;;;;;9.05;2.97;;;;;;;11.52;100.00;69682.88;5524358;26;20001;-52
2024/04/11 08:59:09;;;;;;;7.47;2.50;;;;;;;11.63;100.00;69697.72;5525891;25;20073;-50
2024/04/11 09:01:37;;;;;;;9.60;2.75;;;;;;;11.65;100.00;69697.47;5525004;26;20029;-47
2024/04/11 09:04:08;;;;;;;9.23;3.10;;;;;;;11.64;100.00;69693.66;5525746;26;20077;-49
2024/04/11 09:06:36;;;;;;;10.48;2.38;;;;;;;11.73;100.00;69701.00;5525640;26;19998;-50
2024/04/11 09:09:16;;;;;;;10.80;2.92;;;;;;;11.80;100.00;69714.41;5525778;25;20429;-47
2024/04/11 09:11:44;;;;;;;11.07;2.95;;;;;;;11.87;100.00;69722.56;5525620;26;20005;-50
2024/04/11 09:14:18;;;;;;;12.07;2.90;;;;;;;11.92;100.00;69720.56;5525674;25;19993;-49
2024/04/11 09:16:46;;;;;;;7.78;2.83;;;;;;;11.92;100.00;69723.19;5521668;25;20684;-51
2024/04/11 09:19:22;;;;;;;10.38;3.10;;;;;;;11.98;100.00;69735.47;5521682;25;20001;-52
2024/04/11 09:21:53;;;;;;;9.43;2.78;;;;;;;12.06;100.00;69743.63;5525500;26;20013;-50
2024/04/11 09:24:24;;;;;;;10.77;2.75;;;;;;;12.14;100.00;69752.97;5525367;26;20281;-46
2024/04/11 09:26:55;;;;;;;10.77;3.10;;;;;;;12.14;100.00;69753.56;5524012;26;20002;-46
2024/04/11 09:29:29;;;;;;;8.45;3.00;;;;;;;12.10;100.00;69750.91;5524470;25;20113;-49
2024/04/11 09:31:58;;;;;;;11.45;3.28;;;;;;;12.15;100.00;69756.78;5525079;25;20447;-50
2024/04/11 09:34:32;;;;;;;9.38;2.95;;;;;;;12.21;100.00;69758.53;5521818;26;20069;-49
2024/04/11 09:37:03;;;;;;;11.10;3.08;;;;;;;12.26;100.00;69761.19;5520088;25;20025;-46
2024/04/11 09:39:49;;;;;;;8.70;3.58;;;;;;;12.34;100.00;69776.34;5516634;26;20010;-48
2024/04/11 09:42:18;;;;;;;11.90;3.83;;;;;;;12.43;100.00;69781.03;5520778;25;20077;-47
2024/04/11 09:44:55;;;;;;;10.57;3.10;;;;;;;12.45;100.00;69783.41;5520728;26;20018;-47
2024/04/11 09:47:26;;;;;;;10.57;3.70;;;;;;;12.55;100.00;69799.16;5499484;26;20009;-47
2024/04/11 09:50:04;;;;;;;8.55;3.50;;;;;;;12.60;100.00;69802.97;5524531;25;20009;-48
2024/04/11 09:52:34;;;;;;;9.48;3.58;;;;;;;12.67;100.00;69813.19;5525441;26;19997;-47
2024/04/11 09:55:07;;;;;;;11.57;3.90;;;;;;;12.75;100.00;69819.31;5524865;26;20468;-49
2024/04/11 09:57:41;;;;;;;10.30;3.72;;;;;;;12.79;100.00;69824.59;5524633;26;19993;-47
2024/04/11 10:00:43;;;;;;;11.40;5.03;;;;;;;12.79;100.00;69824.00;5527366;25;20310;-46
2024/04/11 10:03:12;;;;;;;7.97;4.20;;;;;;;12.83;100.00;69826.06;5548023;25;20012;-49
2024/04/11 10:05:50;;;;;;;10.07;3.80;;;;;;;12.87;100.00;69835.97;5554156;25;20362;-47
2024/04/11 10:08:23;;;;;;;13.30;4.18;;;;;;;12.94;100.00;69846.78;5523387;26;20441;-46
2024/04/11 10:10:58;;;;;;;;;;;;;;;13.04;100.00;69849.44;5519632;25;20002;-48
2024/04/11 10:13:26;;;;;;;10.57;4.45;;;;;;;13.06;100.00;69852.38;5519140;26;19923;-49
2024/04/11 10:16:14;;;;;;;9.00;4.22;;;;;;;13.15;100.00;69867.56;5523443;26;20020;-49
2024/04/11 10:18:51;;;;;;;11.82;4.90;;;;;;;13.20;100.00;69873.41;5491456;26;20445;-48
2024/04/11 10:21:29;;;;;;;13.98;5.03;;;;;;;13.19;100.00;69875.44;5519770;26;20012;-47
2024/04/11 10:24:14;;;;;;;10.77;5.20;;;;;;;13.16;100.00;69868.72;5520736;26;20370;-47
2024/04/11 10:26:50;;;;;;;13.38;5.53;;;;;;;13.19;100.00;69867.00;5524150;26;20005;-47
2024/04/11 10:29:19;;;;;;;13.05;5.75;;;;;;;13.22;100.00;69875.72;5524216;26;20065;-46
2024/04/11 10:31:56;;;;;;;13.00;5.82;;;;;;;13.21;100.00;69869.34;5523980;26;20024;-46
2024/04/11 10:34:34;;;;;;;13.30;5.20;;;;;;;13.29;100.00;69881.31;5519090;26;20060;-47
2024/04/11 10:37:07;;;;;;;13.38;6.10;;;;;;;13.24;100.00;69878.09;5519865;26;20009;-50
2024/04/11 10:39:36;;;;;;;14.52;6.80;;;;;;;13.29;100.00;69878.69;5523941;26;20025;-47
2024/04/11 10:42:10;;;;;;;14.13;6.20;;;;;;;13.30;100.00;69879.84;5523734;26;20001;-48
2024/04/11 10:44:38;;;;;;;14.32;6.78;;;;;;;13.33;100.00;69885.38;5523458;26;19993;-47
2024/04/11 10:47:17;;;;;;;11.52;5.95;;;;;;;13.38;100.00;69888.66;5523667;26;20008;-47
2024/04/11 10:49:45;;;;;;;10.52;6.63;;;;;;;13.44;100.00;69895.06;5523711;26;20013;-47
2024/04/11 10:52:16;;;;;;;13.70;5.97;;;;;;;13.52;100.00;69905.03;5523571;26;20362;-47
2024/04/11 10:54:45;;;;;;;12.73;6.40;;;;;;;13.56;100.00;69909.13;5523700;26;20465;-47
2024/04/11 10:57:16;;;;;;;10.35;6.50;;;;;;;13.62;100.00;69916.13;5523952;26;20328;-46
2024/04/11 10:59:50;;;;;;;10.57;6.43;;;;;;;13.66;100.00;69923.44;5523447;26;20009;-46
2024/04/11 11:02:24;;;;;;;11.57;6.30;;;;;;;13.62;100.00;69916.13;5523616;26;19997;-49
2024/04/11 11:04:55;;;;;;;12.65;6.38;;;;;;;13.64;100.00;69921.09;5523113;26;19993;-48
2024/04/11 11:07:31;;;;;;;12.93;7.05;;;;;;;13.65;100.00;69922.28;5523408;26;20017;-48
2024/04/11 11:10:04;;;;;;;12.55;6.47;;;;;;;13.74;100.00;69931.63;5523497;26;20000;-46
2024/04/11 11:12:37;;;;;;;11.55;6.40;;;;;;;13.85;100.00;69947.13;5523647;26;20113;-46
2024/04/11 11:15:06;;;;;;;10.90;6.15;;;;;;;13.97;100.00;69957.94;5523188;26;20037;-47
2024/04/11 11:17:41;;;;;;;14.05;7.07;;;;;;;14.05;100.00;69962.06;5523662;26;20001;-46
2024/04/11 11:20:10;;;;;;;13.20;6.70;;;;;;;14.03;100.00;69962.94;5523783;26;20001;-47
2024/04/11 11:22:41;;;;;;;10.18;6.82;;;;;;;13.95;100.00;69953.00;5523594;26;20337;-48
2024/04/11 11:25:09;;;;;;;12.23;6.47;;;;;;;14.06;100.00;69971.13;5523377;26;19998;-46
2024/04/11 11:27:41;;;;;;;11.65;6.90;;;;;;;14.08;100.00;69970.25;5523421;26;19994;-45
2024/04/11 11:30:15;;;;;;;10.68;6.88;;;;;;;14.10;100.00;69972.59;5523448;26;19998;-50
2024/04/11 11:32:52;;;;;;;12.10;6.55;;;;;;;14.15;100.00;69981.66;5523239;26;20568;-48
2024/04/11 11:35:24;;;;;;;14.77;7.45;;;;;;;14.29;100.00;69991.59;5523460;26;20069;-49
2024/04/11 11:37:55;;;;;;;10.07;6.40;;;;;;;14.35;100.00;69999.22;5520813;26;20016;-51
2024/04/11 11:40:39;;;;;;;10.18;5.95;;;;;;;14.30;100.00;69995.41;5518556;26;19993;-49
2024/04/11 11:43:16;;;;;;;11.38;6.47;;;;;;;14.36;100.00;70000.38;5522721;26;20077;-48
2024/04/11 11:48:35;;;;;;;9.43;6.57;;;;;;;14.43;100.00;70007.41;5523172;25;19997;-48